sensor_id;sensor_type;location;lat;lon;timestamp;temperature;humidity
19088;DHT22;9676;50.916;13.352;2023-02-23T00:00:30;11.10;90.20
19088;DHT22;9676;50.916;13.352;2023-02-23T00:03:20;11.10;90.40
19088;DHT22;9676;50.916;13.352;2023-02-23T00:06:10;11.00;90.30
19088;DHT22;9676;50.916;13.352;2023-02-23T00:09:03;11.10;90.40
19088;DHT22;9676;50.916;13.352;2023-02-23T00:11:58;11.00;90.40
19088;DHT22;9676;50.916;13.352;2023-02-23T00:14:50;11.00;90.30
19088;DHT22;9676;50.916;13.352;2023-02-23T00:17:39;11.00;90.40
19088;DHT22;9676;50.916;13.352;2023-02-23T00:20:29;11.00;90.40
19088;DHT22;9676;50.916;13.352;2023-02-23T00:23:18;11.00;90.50
19088;DHT22;9676;50.916;13.352;2023-02-23T00:26:09;11.00;90.50
19088;DHT22;9676;50.916;13.352;2023-02-23T00:29:01;11.00;90.60
19088;DHT22;9676;50.916;13.352;2023-02-23T00:31:52;11.00;90.60
19088;DHT22;9676;50.916;13.352;2023-02-23T00:34:42;10.90;90.50
19088;DHT22;9676;50.916;13.352;2023-02-23T00:37:32;10.90;90.50
19088;DHT22;9676;50.916;13.352;2023-02-23T00:40:21;10.90;90.50
19088;DHT22;9676;50.916;13.352;2023-02-23T00:43:13;10.90;90.50
19088;DHT22;9676;50.916;13.352;2023-02-23T00:46:07;10.90;90.70
19088;DHT22;9676;50.916;13.352;2023-02-23T00:48:58;10.90;90.60
19088;DHT22;9676;50.916;13.352;2023-02-23T00:51:48;10.90;90.70
19088;DHT22;9676;50.916;13.352;2023-02-23T00:54:39;10.90;90.70
19088;DHT22;9676;50.916;13.352;2023-02-23T00:57:28;10.90;90.70
19088;DHT22;9676;50.916;13.352;2023-02-23T01:00:19;10.80;90.70
19088;DHT22;9676;50.916;13.352;2023-02-23T01:03:09;10.80;90.90
19088;DHT22;9676;50.916;13.352;2023-02-23T01:05:59;10.80;90.70
19088;DHT22;9676;50.916;13.352;2023-02-23T01:08:51;10.80;90.90
19088;DHT22;9676;50.916;13.352;2023-02-23T01:11:43;10.80;90.90
19088;DHT22;9676;50.916;13.352;2023-02-23T01:14:35;10.80;91.00
19088;DHT22;9676;50.916;13.352;2023-02-23T01:17:26;10.80;91.20
19088;DHT22;9676;50.916;13.352;2023-02-23T01:20:17;10.80;91.30
19088;DHT22;9676;50.916;13.352;2023-02-23T01:23:07;10.80;91.30
19088;DHT22;9676;50.916;13.352;2023-02-23T01:25:59;10.80;91.40
19088;DHT22;9676;50.916;13.352;2023-02-23T01:28:49;10.90;91.50
19088;DHT22;9676;50.916;13.352;2023-02-23T01:31:40;10.90;91.60
19088;DHT22;9676;50.916;13.352;2023-02-23T01:34:32;10.90;91.70
19088;DHT22;9676;50.916;13.352;2023-02-23T01:37:21;10.90;91.80
19088;DHT22;9676;50.916;13.352;2023-02-23T01:40:14;11.00;91.80
19088;DHT22;9676;50.916;13.352;2023-02-23T01:43:17;11.00;92.00
19088;DHT22;9676;50.916;13.352;2023-02-23T01:46:12;11.00;92.00
19088;DHT22;9676;50.916;13.352;2023-02-23T01:49:02;11.00;91.90
19088;DHT22;9676;50.916;13.352;2023-02-23T01:51:58;11.00;92.00
19088;DHT22;9676;50.916;13.352;2023-02-23T01:54:51;11.10;92.10
19088;DHT22;9676;50.916;13.352;2023-02-23T01:57:43;11.10;92.10
19088;DHT22;9676;50.916;13.352;2023-02-23T02:00:33;11.10;92.10
19088;DHT22;9676;50.916;13.352;2023-02-23T02:03:30;11.10;92.20
19088;DHT22;9676;50.916;13.352;2023-02-23T02:06:24;11.20;92.40
19088;DHT22;9676;50.916;13.352;2023-02-23T02:09:17;11.20;92.30
19088;DHT22;9676;50.916;13.352;2023-02-23T02:12:10;11.20;92.30
19088;DHT22;9676;50.916;13.352;2023-02-23T02:15:05;11.30;92.30
19088;DHT22;9676;50.916;13.352;2023-02-23T02:18:10;11.30;92.20
19088;DHT22;9676;50.916;13.352;2023-02-23T02:21:42;11.30;92.30
19088;DHT22;9676;50.916;13.352;2023-02-23T02:29:05;11.30;92.30
19088;DHT22;9676;50.916;13.352;2023-02-23T02:39:27;11.30;92.00
19088;DHT22;9676;50.916;13.352;2023-02-23T02:42:28;11.30;91.60
19088;DHT22;9676;50.916;13.352;2023-02-23T02:45:27;11.30;91.80
19088;DHT22;9676;50.916;13.352;2023-02-23T02:48:26;11.30;91.90
19088;DHT22;9676;50.916;13.352;2023-02-23T02:51:24;11.30;91.90
19088;DHT22;9676;50.916;13.352;2023-02-23T02:54:22;11.30;92.00
19088;DHT22;9676;50.916;13.352;2023-02-23T02:57:16;11.30;92.20
19088;DHT22;9676;50.916;13.352;2023-02-23T03:00:10;11.30;91.90
19088;DHT22;9676;50.916;13.352;2023-02-23T03:03:31;11.30;91.90
19088;DHT22;9676;50.916;13.352;2023-02-23T03:06:44;11.30;92.20
19088;DHT22;9676;50.916;13.352;2023-02-23T03:09:59;11.30;92.00
19088;DHT22;9676;50.916;13.352;2023-02-23T03:13:16;11.30;92.00
19088;DHT22;9676;50.916;13.352;2023-02-23T03:16:31;11.30;92.10
19088;DHT22;9676;50.916;13.352;2023-02-23T03:19:50;11.30;92.00
19088;DHT22;9676;50.916;13.352;2023-02-23T03:23:08;11.30;92.10
19088;DHT22;9676;50.916;13.352;2023-02-23T03:26:26;11.30;92.10
19088;DHT22;9676;50.916;13.352;2023-02-23T03:29:41;11.30;92.10
19088;DHT22;9676;50.916;13.352;2023-02-23T03:32:56;11.30;92.10
19088;DHT22;9676;50.916;13.352;2023-02-23T03:36:08;11.30;92.10
19088;DHT22;9676;50.916;13.352;2023-02-23T03:39:23;11.30;92.20
19088;DHT22;9676;50.916;13.352;2023-02-23T03:42:35;11.30;92.30
19088;DHT22;9676;50.916;13.352;2023-02-23T03:45:45;11.30;92.30
19088;DHT22;9676;50.916;13.352;2023-02-23T03:48:55;11.30;92.30
19088;DHT22;9676;50.916;13.352;2023-02-23T03:52:08;11.30;92.30
19088;DHT22;9676;50.916;13.352;2023-02-23T03:55:22;11.30;92.40
19088;DHT22;9676;50.916;13.352;2023-02-23T03:58:36;11.30;92.30
19088;DHT22;9676;50.916;13.352;2023-02-23T04:01:46;11.30;92.30
19088;DHT22;9676;50.916;13.352;2023-02-23T04:04:55;11.30;92.20
19088;DHT22;9676;50.916;13.352;2023-02-23T04:08:08;11.30;92.30
19088;DHT22;9676;50.916;13.352;2023-02-23T04:11:22;11.30;92.40
19088;DHT22;9676;50.916;13.352;2023-02-23T04:14:38;11.30;92.40
19088;DHT22;9676;50.916;13.352;2023-02-23T04:17:31;11.30;92.50
19088;DHT22;9676;50.916;13.352;2023-02-23T04:20:22;11.30;92.30
19088;DHT22;9676;50.916;13.352;2023-02-23T04:23:12;11.30;92.30
19088;DHT22;9676;50.916;13.352;2023-02-23T04:26:02;11.30;92.20
19088;DHT22;9676;50.916;13.352;2023-02-23T04:28:51;11.30;92.20
19088;DHT22;9676;50.916;13.352;2023-02-23T04:31:42;11.30;92.20
19088;DHT22;9676;50.916;13.352;2023-02-23T04:34:33;11.30;92.20
19088;DHT22;9676;50.916;13.352;2023-02-23T04:37:22;11.30;92.10
19088;DHT22;9676;50.916;13.352;2023-02-23T04:40:12;11.30;92.10
19088;DHT22;9676;50.916;13.352;2023-02-23T04:43:02;11.20;92.00
19088;DHT22;9676;50.916;13.352;2023-02-23T04:45:51;11.20;91.90
19088;DHT22;9676;50.916;13.352;2023-02-23T04:48:42;11.20;91.90
19088;DHT22;9676;50.916;13.352;2023-02-23T04:51:31;11.20;92.00
19088;DHT22;9676;50.916;13.352;2023-02-23T04:54:22;11.10;91.90
19088;DHT22;9676;50.916;13.352;2023-02-23T04:57:11;11.10;91.90
19088;DHT22;9676;50.916;13.352;2023-02-23T05:00:01;11.10;91.90
19088;DHT22;9676;50.916;13.352;2023-02-23T05:02:51;11.10;92.00
19088;DHT22;9676;50.916;13.352;2023-02-23T05:05:42;11.00;92.00
19088;DHT22;9676;50.916;13.352;2023-02-23T05:08:31;11.00;92.20
19088;DHT22;9676;50.916;13.352;2023-02-23T05:11:21;10.90;92.10
19088;DHT22;9676;50.916;13.352;2023-02-23T05:14:11;11.00;92.20
19088;DHT22;9676;50.916;13.352;2023-02-23T05:17:01;10.90;92.20
19088;DHT22;9676;50.916;13.352;2023-02-23T05:19:50;10.90;92.20
19088;DHT22;9676;50.916;13.352;2023-02-23T05:22:41;10.90;92.30
19088;DHT22;9676;50.916;13.352;2023-02-23T05:25:31;10.90;92.40
19088;DHT22;9676;50.916;13.352;2023-02-23T05:28:20;10.80;92.40
19088;DHT22;9676;50.916;13.352;2023-02-23T05:31:10;10.90;92.50
19088;DHT22;9676;50.916;13.352;2023-02-23T05:33:59;10.80;92.60
19088;DHT22;9676;50.916;13.352;2023-02-23T05:36:49;10.80;92.60
19088;DHT22;9676;50.916;13.352;2023-02-23T05:39:39;10.80;92.70
19088;DHT22;9676;50.916;13.352;2023-02-23T05:42:29;10.80;92.90
19088;DHT22;9676;50.916;13.352;2023-02-23T05:45:18;10.90;92.90
19088;DHT22;9676;50.916;13.352;2023-02-23T05:48:08;10.80;92.90
19088;DHT22;9676;50.916;13.352;2023-02-23T05:51:00;10.80;93.00
19088;DHT22;9676;50.916;13.352;2023-02-23T05:53:50;10.90;93.20
19088;DHT22;9676;50.916;13.352;2023-02-23T05:56:41;10.90;93.20
19088;DHT22;9676;50.916;13.352;2023-02-23T05:59:30;10.90;93.40
19088;DHT22;9676;50.916;13.352;2023-02-23T06:02:20;10.90;93.30
19088;DHT22;9676;50.916;13.352;2023-02-23T06:05:10;10.90;93.30
19088;DHT22;9676;50.916;13.352;2023-02-23T06:08:00;11.00;93.50
19088;DHT22;9676;50.916;13.352;2023-02-23T06:10:49;11.00;93.40
19088;DHT22;9676;50.916;13.352;2023-02-23T06:13:40;11.00;93.50
19088;DHT22;9676;50.916;13.352;2023-02-23T06:16:30;11.00;93.70
19088;DHT22;9676;50.916;13.352;2023-02-23T06:19:19;11.00;93.60
19088;DHT22;9676;50.916;13.352;2023-02-23T06:22:09;11.00;93.80
19088;DHT22;9676;50.916;13.352;2023-02-23T06:24:58;11.00;93.80
19088;DHT22;9676;50.916;13.352;2023-02-23T06:27:49;11.10;94.00
19088;DHT22;9676;50.916;13.352;2023-02-23T06:30:40;11.10;94.10
19088;DHT22;9676;50.916;13.352;2023-02-23T06:33:29;11.10;94.20
19088;DHT22;9676;50.916;13.352;2023-02-23T06:36:19;11.10;94.10
19088;DHT22;9676;50.916;13.352;2023-02-23T06:39:09;11.20;94.20
19088;DHT22;9676;50.916;13.352;2023-02-23T06:41:59;11.20;94.30
19088;DHT22;9676;50.916;13.352;2023-02-23T06:44:48;11.30;94.40
19088;DHT22;9676;50.916;13.352;2023-02-23T06:47:39;11.30;94.40
19088;DHT22;9676;50.916;13.352;2023-02-23T06:50:29;11.30;94.50
19088;DHT22;9676;50.916;13.352;2023-02-23T06:53:18;11.40;94.60
19088;DHT22;9676;50.916;13.352;2023-02-23T06:56:08;11.40;94.70
19088;DHT22;9676;50.916;13.352;2023-02-23T06:58:59;11.50;94.90
19088;DHT22;9676;50.916;13.352;2023-02-23T07:01:48;11.50;95.00
19088;DHT22;9676;50.916;13.352;2023-02-23T07:04:39;11.60;95.20
19088;DHT22;9676;50.916;13.352;2023-02-23T07:07:28;11.70;95.40
19088;DHT22;9676;50.916;13.352;2023-02-23T07:10:19;11.70;95.50
19088;DHT22;9676;50.916;13.352;2023-02-23T07:13:08;11.70;95.70
19088;DHT22;9676;50.916;13.352;2023-02-23T07:15:59;11.80;95.90
19088;DHT22;9676;50.916;13.352;2023-02-23T07:18:49;11.90;96.00
19088;DHT22;9676;50.916;13.352;2023-02-23T07:21:39;12.00;96.00
19088;DHT22;9676;50.916;13.352;2023-02-23T07:24:29;12.10;96.10
19088;DHT22;9676;50.916;13.352;2023-02-23T07:27:19;12.20;96.10
19088;DHT22;9676;50.916;13.352;2023-02-23T07:30:09;12.20;96.00
19088;DHT22;9676;50.916;13.352;2023-02-23T07:32:59;12.40;96.10
19088;DHT22;9676;50.916;13.352;2023-02-23T07:35:49;12.40;96.00
19088;DHT22;9676;50.916;13.352;2023-02-23T07:38:40;12.50;96.10
19088;DHT22;9676;50.916;13.352;2023-02-23T07:41:29;12.60;96.00
19088;DHT22;9676;50.916;13.352;2023-02-23T07:44:20;12.60;96.00
19088;DHT22;9676;50.916;13.352;2023-02-23T07:47:10;12.70;96.00
19088;DHT22;9676;50.916;13.352;2023-02-23T07:50:01;12.80;96.00
19088;DHT22;9676;50.916;13.352;2023-02-23T07:52:54;12.90;96.00
19088;DHT22;9676;50.916;13.352;2023-02-23T07:55:45;13.00;96.20
19088;DHT22;9676;50.916;13.352;2023-02-23T07:58:36;13.10;96.30
19088;DHT22;9676;50.916;13.352;2023-02-23T08:01:26;13.20;96.50
19088;DHT22;9676;50.916;13.352;2023-02-23T08:04:16;13.30;96.60
19088;DHT22;9676;50.916;13.352;2023-02-23T08:07:05;13.40;96.80
19088;DHT22;9676;50.916;13.352;2023-02-23T08:09:55;13.50;97.00
19088;DHT22;9676;50.916;13.352;2023-02-23T08:12:46;13.60;97.00
19088;DHT22;9676;50.916;13.352;2023-02-23T08:15:35;13.80;97.10
19088;DHT22;9676;50.916;13.352;2023-02-23T08:18:25;13.90;97.20
19088;DHT22;9676;50.916;13.352;2023-02-23T08:21:14;14.00;97.20
19088;DHT22;9676;50.916;13.352;2023-02-23T08:24:05;14.20;97.20
19088;DHT22;9676;50.916;13.352;2023-02-23T08:26:54;14.30;97.00
19088;DHT22;9676;50.916;13.352;2023-02-23T08:29:45;14.50;97.20
19088;DHT22;9676;50.916;13.352;2023-02-23T08:32:35;14.60;97.20
19088;DHT22;9676;50.916;13.352;2023-02-23T08:35:24;14.80;97.60
19088;DHT22;9676;50.916;13.352;2023-02-23T08:38:13;14.90;97.80
19088;DHT22;9676;50.916;13.352;2023-02-23T08:41:05;15.10;98.00
19088;DHT22;9676;50.916;13.352;2023-02-23T08:43:55;15.30;98.10
19088;DHT22;9676;50.916;13.352;2023-02-23T08:46:47;15.50;97.80
19088;DHT22;9676;50.916;13.352;2023-02-23T08:49:37;15.70;97.60
19088;DHT22;9676;50.916;13.352;2023-02-23T08:52:26;15.90;97.80
19088;DHT22;9676;50.916;13.352;2023-02-23T08:55:16;16.00;97.70
19088;DHT22;9676;50.916;13.352;2023-02-23T08:58:08;16.30;97.70
19088;DHT22;9676;50.916;13.352;2023-02-23T09:00:58;16.40;97.40
19088;DHT22;9676;50.916;13.352;2023-02-23T09:03:49;16.70;97.10
19088;DHT22;9676;50.916;13.352;2023-02-23T09:06:39;16.90;96.40
19088;DHT22;9676;50.916;13.352;2023-02-23T09:09:28;17.00;96.70
19088;DHT22;9676;50.916;13.352;2023-02-23T09:12:18;17.20;96.60
19088;DHT22;9676;50.916;13.352;2023-02-23T09:15:08;17.40;96.30
19088;DHT22;9676;50.916;13.352;2023-02-23T09:17:59;17.60;95.80
19088;DHT22;9676;50.916;13.352;2023-02-23T09:20:50;17.80;96.00
19088;DHT22;9676;50.916;13.352;2023-02-23T09:23:40;18.00;96.30
19088;DHT22;9676;50.916;13.352;2023-02-23T09:26:29;18.30;97.10
19088;DHT22;9676;50.916;13.352;2023-02-23T09:29:19;18.50;97.20
19088;DHT22;9676;50.916;13.352;2023-02-23T09:32:10;18.80;97.20
19088;DHT22;9676;50.916;13.352;2023-02-23T09:35:01;19.00;96.50
19088;DHT22;9676;50.916;13.352;2023-02-23T09:37:53;19.30;95.90
19088;DHT22;9676;50.916;13.352;2023-02-23T09:40:45;19.50;94.20
19088;DHT22;9676;50.916;13.352;2023-02-23T09:43:41;19.60;93.70
19088;DHT22;9676;50.916;13.352;2023-02-23T09:46:40;19.80;92.40
19088;DHT22;9676;50.916;13.352;2023-02-23T09:49:38;19.90;91.40
19088;DHT22;9676;50.916;13.352;2023-02-23T09:52:35;19.90;91.30
19088;DHT22;9676;50.916;13.352;2023-02-23T09:55:29;20.00;91.10
19088;DHT22;9676;50.916;13.352;2023-02-23T09:58:21;20.10;91.70
19088;DHT22;9676;50.916;13.352;2023-02-23T10:04:49;20.30;90.60
19088;DHT22;9676;50.916;13.352;2023-02-23T10:07:47;20.50;91.50
19088;DHT22;9676;50.916;13.352;2023-02-23T10:10:44;20.60;91.10
19088;DHT22;9676;50.916;13.352;2023-02-23T10:13:42;20.80;90.50
19088;DHT22;9676;50.916;13.352;2023-02-23T10:16:44;20.90;90.10
19088;DHT22;9676;50.916;13.352;2023-02-23T10:19:52;21.10;89.40
19088;DHT22;9676;50.916;13.352;2023-02-23T10:22:46;21.20;89.20
19088;DHT22;9676;50.916;13.352;2023-02-23T10:25:42;21.40;90.90
19088;DHT22;9676;50.916;13.352;2023-02-23T10:28:35;21.50;89.80
19088;DHT22;9676;50.916;13.352;2023-02-23T10:31:29;21.70;90.90
19088;DHT22;9676;50.916;13.352;2023-02-23T10:34:23;21.90;90.50
19088;DHT22;9676;50.916;13.352;2023-02-23T10:37:16;22.10;90.90
19088;DHT22;9676;50.916;13.352;2023-02-23T10:40:13;22.40;91.00
19088;DHT22;9676;50.916;13.352;2023-02-23T10:43:05;22.60;88.90
19088;DHT22;9676;50.916;13.352;2023-02-23T10:45:55;22.90;90.30
19088;DHT22;9676;50.916;13.352;2023-02-23T10:48:45;23.10;90.70
19088;DHT22;9676;50.916;13.352;2023-02-23T10:51:36;23.40;90.40
19088;DHT22;9676;50.916;13.352;2023-02-23T10:54:35;23.70;90.40
19088;DHT22;9676;50.916;13.352;2023-02-23T10:57:28;24.00;88.20
19088;DHT22;9676;50.916;13.352;2023-02-23T11:00:26;24.30;91.00
19088;DHT22;9676;50.916;13.352;2023-02-23T11:03:24;24.70;88.50
19088;DHT22;9676;50.916;13.352;2023-02-23T11:06:30;25.10;88.40
19088;DHT22;9676;50.916;13.352;2023-02-23T11:09:23;25.50;85.80
19088;DHT22;9676;50.916;13.352;2023-02-23T11:12:36;25.80;87.00
19088;DHT22;9676;50.916;13.352;2023-02-23T11:15:32;26.00;84.10
19088;DHT22;9676;50.916;13.352;2023-02-23T11:18:39;26.20;83.40
19088;DHT22;9676;50.916;13.352;2023-02-23T11:21:31;26.30;83.30
19088;DHT22;9676;50.916;13.352;2023-02-23T11:24:23;26.50;82.40
19088;DHT22;9676;50.916;13.352;2023-02-23T11:27:20;26.50;81.20
19088;DHT22;9676;50.916;13.352;2023-02-23T11:30:12;26.60;79.70
19088;DHT22;9676;50.916;13.352;2023-02-23T11:33:04;26.60;79.50
19088;DHT22;9676;50.916;13.352;2023-02-23T11:35:59;26.60;76.90
19088;DHT22;9676;50.916;13.352;2023-02-23T11:39:05;26.50;76.30
19088;DHT22;9676;50.916;13.352;2023-02-23T11:42:14;26.40;72.70
19088;DHT22;9676;50.916;13.352;2023-02-23T11:45:14;26.20;71.30
19088;DHT22;9676;50.916;13.352;2023-02-23T11:48:06;25.90;72.00
19088;DHT22;9676;50.916;13.352;2023-02-23T11:50:56;25.70;71.30
19088;DHT22;9676;50.916;13.352;2023-02-23T11:53:46;25.40;71.20
19088;DHT22;9676;50.916;13.352;2023-02-23T11:56:36;25.20;70.80
19088;DHT22;9676;50.916;13.352;2023-02-23T11:59:28;24.90;70.40
19088;DHT22;9676;50.916;13.352;2023-02-23T12:02:22;24.70;69.50
19088;DHT22;9676;50.916;13.352;2023-02-23T12:05:18;24.40;69.20
19088;DHT22;9676;50.916;13.352;2023-02-23T12:08:13;24.20;68.60
19088;DHT22;9676;50.916;13.352;2023-02-23T12:11:09;24.00;68.70
19088;DHT22;9676;50.916;13.352;2023-02-23T12:14:04;23.80;68.80
19088;DHT22;9676;50.916;13.352;2023-02-23T12:17:01;23.60;68.40
19088;DHT22;9676;50.916;13.352;2023-02-23T12:19:57;23.40;68.40
19088;DHT22;9676;50.916;13.352;2023-02-23T12:22:53;23.20;68.50
19088;DHT22;9676;50.916;13.352;2023-02-23T12:25:49;23.10;68.30
19088;DHT22;9676;50.916;13.352;2023-02-23T12:28:46;22.90;68.60
19088;DHT22;9676;50.916;13.352;2023-02-23T12:31:44;22.80;68.80
19088;DHT22;9676;50.916;13.352;2023-02-23T12:34:40;22.70;68.70
19088;DHT22;9676;50.916;13.352;2023-02-23T12:37:37;22.60;68.70
19088;DHT22;9676;50.916;13.352;2023-02-23T12:40:32;22.50;68.50
19088;DHT22;9676;50.916;13.352;2023-02-23T12:43:28;22.50;68.70
19088;DHT22;9676;50.916;13.352;2023-02-23T12:46:26;22.40;68.70
19088;DHT22;9676;50.916;13.352;2023-02-23T12:49:24;22.30;68.70
19088;DHT22;9676;50.916;13.352;2023-02-23T12:52:20;22.20;68.50
19088;DHT22;9676;50.916;13.352;2023-02-23T12:55:11;22.10;68.30
19088;DHT22;9676;50.916;13.352;2023-02-23T12:58:05;22.10;68.60
19088;DHT22;9676;50.916;13.352;2023-02-23T13:01:01;22.00;68.20
19088;DHT22;9676;50.916;13.352;2023-02-23T13:04:28;21.90;68.00
19088;DHT22;9676;50.916;13.352;2023-02-23T13:07:23;21.80;67.40
19088;DHT22;9676;50.916;13.352;2023-02-23T13:10:27;21.80;67.90
19088;DHT22;9676;50.916;13.352;2023-02-23T13:13:30;21.70;67.40
19088;DHT22;9676;50.916;13.352;2023-02-23T13:16:26;21.60;67.10
19088;DHT22;9676;50.916;13.352;2023-02-23T13:19:21;21.50;67.10
19088;DHT22;9676;50.916;13.352;2023-02-23T13:22:27;21.30;66.90
19088;DHT22;9676;50.916;13.352;2023-02-23T13:25:27;21.20;66.60
19088;DHT22;9676;50.916;13.352;2023-02-23T13:28:48;21.10;66.90
19088;DHT22;9676;50.916;13.352;2023-02-23T13:31:43;21.00;66.80
19088;DHT22;9676;50.916;13.352;2023-02-23T13:34:47;20.80;67.20
19088;DHT22;9676;50.916;13.352;2023-02-23T13:37:43;20.70;67.00
19088;DHT22;9676;50.916;13.352;2023-02-23T13:40:41;20.70;67.10
19088;DHT22;9676;50.916;13.352;2023-02-23T13:43:40;20.60;67.00
19088;DHT22;9676;50.916;13.352;2023-02-23T13:46:42;20.50;67.10
19088;DHT22;9676;50.916;13.352;2023-02-23T13:49:39;20.40;67.10
19088;DHT22;9676;50.916;13.352;2023-02-23T13:52:37;20.30;67.10
19088;DHT22;9676;50.916;13.352;2023-02-23T13:55:34;20.10;66.80
19088;DHT22;9676;50.916;13.352;2023-02-23T13:58:45;20.00;66.60
19088;DHT22;9676;50.916;13.352;2023-02-23T14:01:37;19.80;66.50
19088;DHT22;9676;50.916;13.352;2023-02-23T14:04:35;19.70;66.70
19088;DHT22;9676;50.916;13.352;2023-02-23T14:07:29;19.60;66.90
19088;DHT22;9676;50.916;13.352;2023-02-23T14:10:22;19.50;67.70
19088;DHT22;9676;50.916;13.352;2023-02-23T14:13:27;19.40;67.10
19088;DHT22;9676;50.916;13.352;2023-02-23T14:16:19;19.30;67.00
19088;DHT22;9676;50.916;13.352;2023-02-23T14:22:23;19.10;67.10
19088;DHT22;9676;50.916;13.352;2023-02-23T14:25:43;19.00;67.00
19088;DHT22;9676;50.916;13.352;2023-02-23T14:28:35;18.90;67.10
19088;DHT22;9676;50.916;13.352;2023-02-23T14:31:29;18.80;67.20
19088;DHT22;9676;50.916;13.352;2023-02-23T14:34:20;18.80;67.50
19088;DHT22;9676;50.916;13.352;2023-02-23T14:37:16;18.70;67.70
19088;DHT22;9676;50.916;13.352;2023-02-23T14:40:12;18.60;67.80
19088;DHT22;9676;50.916;13.352;2023-02-23T14:43:40;18.60;67.80
19088;DHT22;9676;50.916;13.352;2023-02-23T14:46:31;18.60;67.90
19088;DHT22;9676;50.916;13.352;2023-02-23T14:49:25;18.50;67.80
19088;DHT22;9676;50.916;13.352;2023-02-23T14:52:20;18.50;67.90
19088;DHT22;9676;50.916;13.352;2023-02-23T14:55:20;18.50;68.00
19088;DHT22;9676;50.916;13.352;2023-02-23T14:58:20;18.40;68.00
19088;DHT22;9676;50.916;13.352;2023-02-23T15:01:31;18.30;67.90
19088;DHT22;9676;50.916;13.352;2023-02-23T15:04:28;18.30;68.00
19088;DHT22;9676;50.916;13.352;2023-02-23T15:07:20;18.20;67.90
19088;DHT22;9676;50.916;13.352;2023-02-23T15:10:19;18.20;68.70
19088;DHT22;9676;50.916;13.352;2023-02-23T15:13:19;18.20;68.10
19088;DHT22;9676;50.916;13.352;2023-02-23T15:16:22;18.10;68.00
19088;DHT22;9676;50.916;13.352;2023-02-23T15:19:21;18.10;68.10
19088;DHT22;9676;50.916;13.352;2023-02-23T15:22:20;18.00;67.90
19088;DHT22;9676;50.916;13.352;2023-02-23T15:25:15;18.00;68.10
19088;DHT22;9676;50.916;13.352;2023-02-23T15:28:14;17.90;68.00
19088;DHT22;9676;50.916;13.352;2023-02-23T15:31:09;17.90;68.10
19088;DHT22;9676;50.916;13.352;2023-02-23T15:34:01;17.80;68.00
19088;DHT22;9676;50.916;13.352;2023-02-23T15:36:53;17.70;67.90
19088;DHT22;9676;50.916;13.352;2023-02-23T15:39:47;17.70;68.00
19088;DHT22;9676;50.916;13.352;2023-02-23T15:42:41;17.60;68.10
19088;DHT22;9676;50.916;13.352;2023-02-23T15:45:36;17.60;68.10
19088;DHT22;9676;50.916;13.352;2023-02-23T15:48:39;17.50;68.10
19088;DHT22;9676;50.916;13.352;2023-02-23T15:51:36;17.40;68.20
19088;DHT22;9676;50.916;13.352;2023-02-23T15:54:29;17.30;68.20
19088;DHT22;9676;50.916;13.352;2023-02-23T15:57:25;17.30;68.20
19088;DHT22;9676;50.916;13.352;2023-02-23T16:00:20;17.20;68.20
19088;DHT22;9676;50.916;13.352;2023-02-23T16:03:23;17.10;68.30
19088;DHT22;9676;50.916;13.352;2023-02-23T16:06:22;17.10;68.30
19088;DHT22;9676;50.916;13.352;2023-02-23T16:09:24;17.00;68.50
19088;DHT22;9676;50.916;13.352;2023-02-23T16:12:18;17.00;68.40
19088;DHT22;9676;50.916;13.352;2023-02-23T16:15:22;16.90;68.40
19088;DHT22;9676;50.916;13.352;2023-02-23T16:18:15;16.90;68.70
19088;DHT22;9676;50.916;13.352;2023-02-23T16:21:06;16.80;68.60
19088;DHT22;9676;50.916;13.352;2023-02-23T16:24:05;16.70;68.50
19088;DHT22;9676;50.916;13.352;2023-02-23T16:26:58;16.70;68.90
19088;DHT22;9676;50.916;13.352;2023-02-23T16:29:55;16.60;68.80
19088;DHT22;9676;50.916;13.352;2023-02-23T16:32:48;16.60;69.00
19088;DHT22;9676;50.916;13.352;2023-02-23T16:35:53;16.50;68.90
19088;DHT22;9676;50.916;13.352;2023-02-23T16:38:56;16.50;69.00
19088;DHT22;9676;50.916;13.352;2023-02-23T16:41:46;16.40;69.10
19088;DHT22;9676;50.916;13.352;2023-02-23T16:44:39;16.40;69.10
19088;DHT22;9676;50.916;13.352;2023-02-23T16:47:35;16.40;69.30
19088;DHT22;9676;50.916;13.352;2023-02-23T16:50:29;16.40;69.60
19088;DHT22;9676;50.916;13.352;2023-02-23T16:53:20;16.30;69.40
19088;DHT22;9676;50.916;13.352;2023-02-23T16:56:10;16.30;69.60
19088;DHT22;9676;50.916;13.352;2023-02-23T16:59:02;16.30;69.80
19088;DHT22;9676;50.916;13.352;2023-02-23T17:01:53;16.20;69.90
19088;DHT22;9676;50.916;13.352;2023-02-23T17:04:43;16.20;70.10
19088;DHT22;9676;50.916;13.352;2023-02-23T17:07:35;16.20;70.20
19088;DHT22;9676;50.916;13.352;2023-02-23T17:10:27;16.20;70.40
19088;DHT22;9676;50.916;13.352;2023-02-23T17:13:20;16.10;70.80
19088;DHT22;9676;50.916;13.352;2023-02-23T17:16:12;16.10;71.10
19088;DHT22;9676;50.916;13.352;2023-02-23T17:19:03;16.10;71.40
19088;DHT22;9676;50.916;13.352;2023-02-23T17:21:53;16.00;71.90
19088;DHT22;9676;50.916;13.352;2023-02-23T17:24:43;16.00;71.80
19088;DHT22;9676;50.916;13.352;2023-02-23T17:27:32;15.90;72.00
19088;DHT22;9676;50.916;13.352;2023-02-23T17:30:22;15.80;72.20
19088;DHT22;9676;50.916;13.352;2023-02-23T17:33:12;15.70;72.60
19088;DHT22;9676;50.916;13.352;2023-02-23T17:36:06;15.60;72.80
19088;DHT22;9676;50.916;13.352;2023-02-23T17:38:57;15.60;73.70
19088;DHT22;9676;50.916;13.352;2023-02-23T17:41:46;15.50;73.20
19088;DHT22;9676;50.916;13.352;2023-02-23T17:44:36;15.40;73.50
19088;DHT22;9676;50.916;13.352;2023-02-23T17:47:25;15.30;74.10
19088;DHT22;9676;50.916;13.352;2023-02-23T17:50:15;15.30;74.50
19088;DHT22;9676;50.916;13.352;2023-02-23T17:53:08;15.20;74.80
19088;DHT22;9676;50.916;13.352;2023-02-23T17:55:57;15.10;75.60
19088;DHT22;9676;50.916;13.352;2023-02-23T17:58:47;15.10;75.60
19088;DHT22;9676;50.916;13.352;2023-02-23T18:01:36;15.10;75.90
19088;DHT22;9676;50.916;13.352;2023-02-23T18:04:26;15.00;75.90
19088;DHT22;9676;50.916;13.352;2023-02-23T18:07:16;15.00;76.00
19088;DHT22;9676;50.916;13.352;2023-02-23T18:10:08;14.90;76.80
19088;DHT22;9676;50.916;13.352;2023-02-23T18:13:00;14.90;77.30
19088;DHT22;9676;50.916;13.352;2023-02-23T18:15:50;14.90;76.90
19088;DHT22;9676;50.916;13.352;2023-02-23T18:18:41;14.90;77.20
19088;DHT22;9676;50.916;13.352;2023-02-23T18:21:33;14.90;77.80
19088;DHT22;9676;50.916;13.352;2023-02-23T18:24:27;14.80;77.50
19088;DHT22;9676;50.916;13.352;2023-02-23T18:27:19;14.90;77.80
19088;DHT22;9676;50.916;13.352;2023-02-23T18:30:11;14.80;78.30
19088;DHT22;9676;50.916;13.352;2023-02-23T18:33:01;14.80;78.30
19088;DHT22;9676;50.916;13.352;2023-02-23T18:35:52;14.80;78.40
19088;DHT22;9676;50.916;13.352;2023-02-23T18:38:41;14.80;78.60
19088;DHT22;9676;50.916;13.352;2023-02-23T18:41:31;14.80;78.60